Avondale, Missouri
Current Conditions -  °F | °C
As of 9:54 PM on Wednesday 22 Oct 2014 (Local Time) from KMKC Reporting Station
Clear Clear  
Wind Chill: 65°   Ceiling: Unl
Heat Index: 65°   Visibility: 10mi
Dew Point: 50°   Wind: 9mph
Humidity: 58%   Direction: 130°SE
Pressure: 30.11"   Gusts: NA
Location:  39.1657°N, 94.5231°W
Report Text: KMKC 230254Z 13008KT 10SM CLR 18/10 A3011 RMK AO2 SLP193 T01830100 53005
Loading
Personal Weather Stations






























Interactive Weather Map
Tropical Storm Tracking
New forecast layout! Learn more

10-Day Weather Forecast

Advertisements
Track Severe Weather on mobile